Columbus Air Force Base Columbus US
ICAO: KCBM
IATA: CBM
Category: Large
Scheduled Services: No

Elevation: 219 ft
TransAlt. 18000 ft.

Airport Communications:
APP:126.075
ATIS:115.2
CLNC DEL:33.86
DEP:132.05
GND:121.9
SOF:25.21
PMSV METRO:34.46
PTD:37.6
TWR:128.65

KCBM Zoom In..

Runways:

(A) RW 13C length 12004 ft width 300 ft
ILS 109.30 / hdg 135

(B) RW 13L length 8001 ft width 150 ft
---- / hdg 135

(C) RW 13R length 6315 ft width 175 ft
---- / hdg 135

(D) RW 31C length 12004 ft width 300 ft
ILS 108.70 / hdg 315

(E) RW 31L length 6315 ft width 175 ft
---- / hdg 315

(F) RW 31R length 8001 ft width 150 ft
---- / hdg 315

Location; KCBM
Day. 05 / Time. 14.56 Zulu
* Altimeter: 29.99
* Temperature: 30° c. 86°f.
* Wind from: 260° Speed 08 kn.
Dewpoint: 23° c.
Visibility: 10 Statute Miles.
Clouds: Scattered 4500 ft.

KCBM 051456Z AUTO 26008KT 10SM SCT045 30/23 A2999 RMK AO2 SLP156 51013


Wind From 260°
Speed 08 kn.

 
 
jpsmedia worldairports.se 2020   terms of use